createdAt,value
2023-07-18T04:15:00.340Z,96.00
2023-07-18T04:16:00.481Z,103.00
2023-07-18T04:17:00.601Z,109.00
2023-07-18T04:18:00.773Z,113.00
2023-07-18T04:19:00.850Z,118.00
2023-07-18T04:20:00.968Z,120.00
2023-07-18T04:21:01.068Z,120.00
2023-07-18T04:22:01.189Z,132.00
2023-07-18T04:23:02.377Z,144.00
2023-07-18T04:24:01.484Z,154.00
2023-07-18T04:25:01.591Z,155.00
2023-07-18T04:26:01.665Z,160.00
2023-07-18T04:27:01.798Z,166.00
2023-07-18T04:28:01.960Z,175.00
2023-07-18T04:29:02.038Z,189.00
2023-07-18T04:30:02.241Z,195.00
2023-07-18T04:31:03.338Z,196.00
2023-07-18T04:32:02.526Z,194.00
2023-07-18T04:33:02.640Z,189.00
2023-07-18T04:34:02.757Z,176.00
2023-07-18T04:35:02.850Z,169.00
2023-07-18T04:36:03.005Z,173.00
2023-07-18T04:37:03.139Z,176.00
2023-07-18T04:38:03.226Z,172.00
2023-07-18T04:39:03.387Z,174.00
2023-07-18T04:40:03.504Z,176.00
2023-07-18T04:41:03.607Z,163.00
2023-07-18T04:42:03.764Z,144.00
2023-07-18T04:43:03.863Z,128.00
2023-07-18T04:44:04.003Z,120.00
2023-07-18T04:45:04.153Z,115.00
2023-07-18T04:46:04.349Z,110.00
2023-07-18T04:47:04.473Z,111.00
2023-07-18T04:48:04.681Z,111.00
2023-07-18T04:49:04.714Z,110.00
2023-07-18T04:50:04.837Z,109.00
2023-07-18T04:51:04.987Z,111.00
2023-07-18T04:52:05.066Z,111.00
2023-07-18T04:53:05.208Z,107.00
2023-07-18T04:54:05.359Z,105.00
2023-07-18T04:55:05.465Z,108.00
2023-07-18T04:56:05.626Z,111.00
2023-07-18T04:57:06.761Z,114.00
2023-07-18T04:58:05.824Z,125.00
2023-07-18T04:59:05.957Z,127.00
2023-07-18T05:00:06.105Z,123.00
2023-07-18T05:01:06.292Z,122.00
2023-07-18T05:02:06.386Z,123.00
2023-07-18T05:03:06.659Z,128.00
2023-07-18T05:04:06.687Z,133.00
2023-07-18T05:05:06.787Z,141.00
2023-07-18T05:06:06.939Z,150.00
2023-07-18T05:07:07.086Z,165.00
2023-07-18T05:08:07.221Z,180.00
2023-07-18T05:09:07.334Z,200.00
2023-07-18T05:10:07.454Z,219.00
2023-07-18T05:11:07.619Z,242.00
2023-07-18T05:12:07.746Z,249.00
2023-07-18T05:13:07.889Z,263.00
2023-07-18T05:14:08.040Z,256.00
2023-07-18T05:15:08.193Z,270.00
2023-07-18T05:16:08.405Z,254.00
2023-07-18T05:17:08.419Z,247.00
2023-07-18T05:18:08.555Z,202.00
2023-07-18T05:19:08.649Z,215.00
2023-07-18T05:20:08.769Z,282.00
2023-07-18T05:21:09.569Z,295.00
2023-07-18T05:22:09.020Z,289.00
2023-07-18T05:23:09.250Z,260.00
2023-07-18T05:24:09.263Z,227.00
2023-07-18T05:25:09.412Z,200.00
2023-07-18T05:26:09.541Z,202.00
2023-07-18T05:27:09.659Z,223.00
2023-07-18T05:28:09.784Z,245.00
2023-07-18T05:29:09.908Z,263.00
2023-07-18T05:30:10.040Z,267.00
2023-07-18T05:31:10.228Z,303.00
2023-07-18T05:32:10.334Z,300.00
2023-07-18T05:33:10.526Z,309.00
2023-07-18T05:34:10.579Z,305.00
2023-07-18T05:35:10.714Z,313.00
2023-07-18T05:36:10.822Z,310.00
2023-07-18T05:37:10.963Z,318.00
2023-07-18T05:38:11.097Z,342.00
2023-07-18T05:39:11.214Z,363.00
2023-07-18T05:40:11.343Z,375.00
2023-07-18T05:41:11.467Z,387.00
2023-07-18T05:42:11.635Z,391.00
2023-07-18T05:43:11.732Z,404.00
2023-07-18T05:44:11.855Z,408.00
2023-07-18T05:45:12.021Z,425.00
2023-07-18T05:46:12.190Z,441.00
2023-07-18T05:47:12.286Z,446.00
2023-07-18T05:48:12.427Z,467.00
2023-07-18T05:49:12.542Z,487.00
2023-07-18T05:50:12.678Z,479.00
2023-07-18T05:51:12.813Z,454.00
2023-07-18T05:52:12.951Z,482.00
2023-07-18T05:53:13.041Z,478.00
2023-07-18T05:54:13.161Z,465.00
2023-07-18T05:55:13.455Z,461.00
2023-07-18T05:56:13.392Z,466.00
2023-07-18T05:57:13.569Z,467.00
2023-07-18T05:58:13.633Z,473.00
2023-07-18T05:59:13.740Z,478.00
2023-07-18T06:00:13.875Z,481.00
2023-07-18T06:01:14.089Z,486.00
2023-07-18T06:02:14.123Z,489.00
2023-07-18T06:03:14.323Z,492.00
2023-07-18T06:04:14.399Z,496.00
2023-07-18T06:05:14.491Z,500.00
2023-07-18T06:06:14.624Z,508.00
2023-07-18T06:07:14.711Z,511.00
2023-07-18T06:08:14.855Z,512.00
2023-07-18T06:09:14.996Z,509.00
2023-07-18T06:10:15.113Z,507.00
2023-07-18T06:11:15.230Z,520.00
2023-07-18T06:12:15.382Z,588.00
2023-07-18T06:13:15.511Z,547.00
2023-07-18T06:15:31.239Z,549.00
2023-07-18T06:16:31.276Z,538.00
2023-07-18T06:17:31.412Z,536.00
2023-07-18T06:18:31.532Z,621.00
2023-07-18T06:19:31.647Z,539.00
2023-07-18T06:20:31.781Z,549.00
2023-07-18T06:21:31.935Z,553.00
2023-07-18T06:22:32.112Z,550.00
2023-07-18T06:23:32.181Z,562.00
2023-07-18T06:24:32.323Z,575.00
2023-07-18T06:25:32.431Z,631.00
2023-07-18T06:26:32.540Z,566.00
2023-07-18T06:27:32.654Z,633.00
2023-07-18T06:28:32.769Z,653.00
2023-07-18T06:29:32.883Z,676.00
2023-07-18T06:30:33.021Z,642.00
2023-07-18T06:31:33.239Z,625.00
2023-07-18T06:32:33.306Z,532.00
2023-07-18T06:33:33.381Z,583.00
2023-07-18T06:34:33.508Z,602.00
2023-07-18T06:35:33.655Z,619.00
2023-07-18T06:36:33.923Z,633.00
2023-07-18T06:37:33.924Z,604.00
2023-07-18T06:38:34.041Z,605.00
2023-07-18T06:39:34.149Z,285.00
2023-07-18T06:40:34.272Z,457.00
2023-07-18T06:41:34.396Z,595.00
2023-07-18T06:42:34.499Z,602.00
2023-07-18T06:43:34.654Z,603.00
2023-07-18T06:44:34.825Z,595.00
2023-07-18T06:45:34.964Z,467.00
2023-07-18T06:46:35.088Z,217.00
2023-07-18T06:47:35.282Z,608.00
2023-07-18T06:48:35.369Z,615.00
2023-07-18T06:49:35.505Z,608.00
2023-07-18T06:50:35.684Z,612.00
2023-07-18T06:51:35.789Z,609.00
2023-07-18T06:52:36.750Z,609.00
2023-07-18T06:53:36.088Z,615.00
2023-07-18T06:54:36.152Z,617.00
2023-07-18T06:55:36.276Z,621.00
2023-07-18T06:56:36.395Z,620.00
2023-07-18T06:57:36.574Z,620.00
2023-07-18T06:58:36.721Z,629.00
2023-07-18T06:59:36.849Z,628.00
2023-07-18T07:00:37.026Z,628.00
2023-07-18T07:01:37.126Z,622.00
2023-07-18T07:02:37.276Z,638.00
2023-07-18T07:03:37.429Z,642.00
2023-07-18T07:04:37.470Z,607.00
2023-07-18T07:05:37.602Z,648.00
2023-07-18T07:06:37.724Z,641.00
2023-07-18T07:07:38.580Z,653.00
2023-07-18T07:08:37.986Z,658.00
2023-07-18T07:09:38.140Z,658.00
2023-07-18T07:10:38.298Z,657.00
2023-07-18T07:11:38.386Z,673.00
2023-07-18T07:12:38.541Z,662.00
2023-07-18T07:13:38.692Z,636.00
2023-07-18T07:14:38.815Z,661.00
2023-07-18T07:15:38.956Z,678.00
2023-07-18T07:16:39.073Z,644.00
2023-07-18T07:17:39.196Z,681.00
2023-07-18T07:18:39.309Z,678.00
2023-07-18T07:19:39.434Z,676.00
2023-07-18T07:20:39.559Z,700.00
2023-07-18T07:21:39.690Z,515.00
2023-07-18T07:22:39.836Z,742.00
2023-07-18T07:23:39.928Z,700.00
2023-07-18T07:24:40.037Z,700.00
2023-07-18T07:25:40.167Z,709.00
2023-07-18T07:26:40.285Z,694.00
2023-07-18T07:27:40.394Z,713.00
2023-07-18T07:28:40.523Z,711.00
2023-07-18T07:29:40.648Z,713.00
2023-07-18T07:30:40.808Z,716.00
2023-07-18T07:31:40.943Z,716.00
2023-07-18T07:32:41.100Z,746.00
2023-07-18T07:33:41.217Z,743.00
2023-07-18T07:34:42.696Z,732.00
2023-07-18T07:35:41.484Z,741.00
2023-07-18T07:36:41.633Z,718.00
2023-07-18T07:37:41.793Z,723.00
2023-07-18T07:38:41.878Z,725.00
2023-07-18T07:39:42.003Z,742.00
2023-07-18T07:40:42.120Z,784.00
2023-07-18T07:41:42.267Z,755.00
2023-07-18T07:42:42.401Z,740.00
2023-07-18T07:43:42.524Z,754.00
2023-07-18T07:44:42.681Z,753.00
2023-07-18T07:45:42.806Z,752.00
2023-07-18T07:46:43.051Z,776.00
2023-07-18T07:47:43.129Z,735.00
2023-07-18T07:48:43.213Z,767.00
2023-07-18T07:49:43.302Z,774.00
2023-07-18T07:50:43.451Z,778.00
2023-07-18T07:51:43.573Z,775.00
2023-07-18T07:52:43.700Z,779.00
2023-07-18T07:53:43.835Z,792.00
2023-07-18T07:54:43.959Z,793.00
2023-07-18T07:55:44.080Z,773.00
2023-07-18T07:56:44.210Z,787.00
2023-07-18T07:57:44.304Z,787.00
2023-07-18T07:58:51.673Z,786.00
2023-07-18T07:59:45.590Z,782.00
2023-07-18T08:00:44.710Z,796.00
2023-07-18T08:01:44.949Z,811.00
2023-07-18T08:02:45.008Z,801.00
2023-07-18T08:03:45.142Z,802.00
2023-07-18T08:04:45.317Z,798.00
2023-07-18T08:05:45.406Z,815.00
2023-07-18T08:06:45.531Z,814.00
2023-07-18T08:07:45.639Z,817.00
2023-07-18T08:08:45.762Z,810.00
2023-07-18T08:09:45.889Z,811.00
2023-07-18T08:10:46.007Z,809.00
2023-07-18T08:11:46.110Z,801.00
2023-07-18T08:12:46.248Z,814.00
2023-07-18T08:13:46.362Z,814.00
2023-07-18T08:14:46.510Z,821.00
2023-07-18T08:15:46.646Z,820.00
2023-07-18T08:16:46.858Z,790.00
2023-07-18T08:17:46.998Z,851.00
2023-07-18T08:18:47.072Z,833.00
2023-07-18T08:19:47.207Z,812.00
2023-07-18T08:20:47.321Z,819.00
2023-07-18T08:21:47.482Z,809.00
2023-07-18T08:22:47.757Z,818.00
2023-07-18T08:23:47.754Z,813.00
2023-07-18T08:24:47.869Z,871.00
2023-07-18T08:25:48.037Z,854.00
2023-07-18T08:26:48.145Z,819.00
2023-07-18T08:27:48.296Z,842.00
2023-07-18T08:28:48.490Z,912.00
2023-07-18T08:29:48.560Z,873.00
2023-07-18T08:30:48.697Z,747.00
2023-07-18T08:31:48.894Z,333.00
2023-07-18T08:32:48.994Z,943.00
2023-07-18T08:33:49.096Z,830.00
2023-07-18T08:34:49.263Z,804.00
2023-07-18T08:35:49.360Z,786.00
2023-07-18T08:36:49.490Z,715.00
2023-07-18T08:37:49.585Z,1391.00
2023-07-18T08:38:50.861Z,216.00
2023-07-18T08:39:49.883Z,1104.00
2023-07-18T08:40:50.011Z,969.00
2023-07-18T08:41:50.153Z,956.00
2023-07-18T08:42:50.237Z,368.00
2023-07-18T08:43:50.406Z,415.00
2023-07-18T08:44:50.564Z,1046.00
2023-07-18T08:45:50.774Z,1061.00
2023-07-18T08:46:50.866Z,1103.00
2023-07-18T08:47:51.004Z,256.00
2023-07-18T08:48:51.096Z,1082.00
2023-07-18T08:49:51.217Z,1121.00
2023-07-18T08:50:51.352Z,1036.00
2023-07-18T08:51:51.494Z,1108.00
2023-07-18T08:52:51.657Z,987.00
2023-07-18T08:53:51.784Z,841.00
2023-07-18T08:54:51.976Z,827.00
2023-07-18T08:55:52.097Z,815.00
2023-07-18T08:56:52.236Z,761.00
2023-07-18T08:57:52.358Z,754.00
2023-07-18T08:58:52.500Z,772.00
2023-07-18T08:59:52.585Z,761.00
2023-07-18T09:00:52.722Z,763.00
2023-07-18T09:01:52.905Z,792.00
2023-07-18T09:02:52.938Z,787.00
2023-07-18T09:03:54.022Z,782.00
2023-07-18T09:04:53.221Z,792.00
2023-07-18T09:05:53.384Z,825.00
2023-07-18T09:06:53.555Z,890.00
2023-07-18T09:07:53.654Z,984.00
2023-07-18T09:08:53.836Z,878.00
2023-07-18T09:09:53.924Z,838.00
2023-07-18T09:10:54.068Z,915.00
2023-07-18T09:11:54.194Z,885.00
2023-07-18T09:12:54.332Z,904.00
2023-07-18T09:13:54.473Z,1021.00
2023-07-18T09:14:54.621Z,1120.00
2023-07-18T09:15:54.746Z,1057.00
2023-07-18T09:16:54.957Z,1020.00
2023-07-18T09:17:55.076Z,942.00
2023-07-18T09:18:55.162Z,861.00
2023-07-18T09:19:55.313Z,841.00
2023-07-18T09:20:55.449Z,818.00
2023-07-18T09:21:55.581Z,790.00
2023-07-18T09:22:55.752Z,810.00
2023-07-18T09:23:55.840Z,847.00
2023-07-18T09:24:56.020Z,885.00
2023-07-18T09:25:56.147Z,878.00
2023-07-18T09:26:56.259Z,1012.00
2023-07-18T09:27:56.386Z,802.00
2023-07-18T09:28:56.523Z,837.00
2023-07-18T09:29:56.699Z,853.00
2023-07-18T09:30:56.812Z,873.00
2023-07-18T09:31:56.993Z,770.00
2023-07-18T09:32:57.846Z,705.00
2023-07-18T09:33:57.207Z,718.00
2023-07-18T09:34:57.506Z,697.00
2023-07-18T09:35:57.456Z,700.00
2023-07-18T09:36:57.558Z,719.00
2023-07-18T09:37:57.685Z,825.00
2023-07-18T09:38:57.807Z,952.00
2023-07-18T09:39:57.963Z,1056.00
2023-07-18T09:40:58.073Z,1236.00
2023-07-18T09:41:58.269Z,1196.00
2023-07-18T09:42:58.401Z,1023.00
2023-07-18T09:44:22.503Z,859.00
2023-07-18T09:45:04.103Z,1004.00
2023-07-18T09:45:59.800Z,1259.00
2023-07-18T09:46:58.929Z,1266.00
2023-07-18T09:47:59.129Z,1067.00
2023-07-18T09:49:04.087Z,976.00
2023-07-18T09:50:00.353Z,1314.00
2023-07-18T09:50:59.459Z,1280.00
2023-07-18T09:51:59.605Z,1314.00
2023-07-18T09:52:59.760Z,945.00
2023-07-18T09:53:59.855Z,916.00
2023-07-18T09:54:59.966Z,1096.00
2023-07-18T09:56:00.077Z,721.00
2023-07-18T09:57:00.214Z,985.00
2023-07-18T09:58:00.353Z,865.00
2023-07-18T09:59:00.468Z,662.00
2023-07-18T10:00:00.624Z,615.00
2023-07-18T10:01:00.792Z,648.00
2023-07-18T10:02:00.926Z,582.00
2023-07-18T10:03:01.113Z,746.00
2023-07-18T10:04:01.293Z,774.00
2023-07-18T10:05:01.359Z,637.00
2023-07-18T10:06:01.503Z,710.00
2023-07-18T10:07:01.611Z,516.00
2023-07-18T10:08:01.727Z,558.00
2023-07-18T10:09:01.906Z,585.00
2023-07-18T10:10:02.076Z,619.00
2023-07-18T10:11:02.196Z,535.00
2023-07-18T10:12:02.329Z,519.00
2023-07-18T10:13:02.515Z,511.00
2023-07-18T10:14:02.612Z,469.00
2023-07-18T10:15:02.767Z,503.00
2023-07-18T10:16:02.928Z,552.00
2023-07-18T10:17:03.042Z,667.00
2023-07-18T10:18:03.153Z,646.00
2023-07-18T10:29:32.106Z,961.00
2023-07-18T10:30:32.184Z,993.00
2023-07-18T10:31:32.354Z,965.00
2023-07-18T10:32:32.538Z,911.00
2023-07-18T10:33:32.611Z,1058.00
2023-07-18T10:34:32.724Z,1074.00
2023-07-18T10:35:32.847Z,1302.00
2023-07-18T10:36:32.959Z,1108.00
2023-07-18T10:37:33.170Z,1159.00
2023-07-18T10:38:33.194Z,1204.00
2023-07-18T10:39:33.361Z,1263.00
2023-07-18T10:40:33.502Z,1440.00
2023-07-18T10:41:33.651Z,1291.00
2023-07-18T10:42:33.780Z,1327.00
2023-07-18T10:43:33.932Z,1289.00
2023-07-18T10:44:34.080Z,1240.00
2023-07-18T10:45:34.254Z,1208.00
2023-07-18T10:46:34.328Z,1253.00
2023-07-18T10:47:34.519Z,1157.00
2023-07-18T10:48:34.569Z,1207.00
2023-07-18T10:49:34.728Z,1106.00
2023-07-18T10:50:34.858Z,1016.00
2023-07-18T10:51:34.977Z,1061.00
2023-07-18T10:52:35.088Z,1185.00
2023-07-18T10:53:35.236Z,1329.00
2023-07-18T10:54:35.378Z,1440.00
2023-07-18T10:55:35.498Z,1371.00
2023-07-18T10:56:35.637Z,1309.00
2023-07-18T10:57:35.739Z,1341.00
2023-07-18T10:58:35.868Z,1374.00
2023-07-18T10:59:36.031Z,1398.00
2023-07-18T11:00:36.177Z,1426.00
2023-07-18T11:01:36.310Z,1359.00
2023-07-18T11:02:36.518Z,1361.00
2023-07-18T11:03:36.573Z,1245.00
2023-07-18T11:04:36.708Z,1195.00
2023-07-18T11:05:36.794Z,1304.00
2023-07-18T11:06:36.929Z,1284.00
2023-07-18T11:07:37.132Z,1207.00
2023-07-18T11:08:37.240Z,1214.00
2023-07-18T11:09:37.300Z,1206.00
2023-07-18T11:10:37.470Z,972.00
2023-07-18T11:11:37.637Z,961.00
2023-07-18T11:12:37.755Z,876.00
2023-07-18T11:13:37.956Z,835.00
2023-07-18T11:14:37.995Z,739.00
2023-07-18T11:15:38.154Z,1096.00
2023-07-18T11:16:38.286Z,831.00
2023-07-18T11:17:38.441Z,982.00
2023-07-18T11:18:38.588Z,892.00
2023-07-18T11:19:38.723Z,715.00
2023-07-18T11:20:38.854Z,854.00
2023-07-18T11:21:39.012Z,858.00
2023-07-18T11:22:39.212Z,916.00
2023-07-18T11:23:39.254Z,1017.00
2023-07-18T11:24:39.434Z,802.00
2023-07-18T11:25:39.541Z,1312.00
2023-07-18T11:26:39.642Z,1266.00
2023-07-18T11:27:39.838Z,1333.00
2023-07-18T11:28:39.934Z,1484.00
2023-07-18T11:29:40.082Z,1641.00
2023-07-18T11:30:40.288Z,1584.00
2023-07-18T11:31:41.904Z,1213.00
2023-07-18T11:32:40.631Z,813.00
2023-07-18T11:33:40.679Z,605.00
2023-07-18T11:34:40.791Z,629.00
2023-07-18T11:35:40.938Z,818.00
2023-07-18T11:36:41.090Z,1248.00
2023-07-18T11:37:42.839Z,1587.00
2023-07-18T11:38:41.344Z,1774.00
2023-07-18T11:39:41.448Z,1599.00
2023-07-18T11:40:41.571Z,1441.00
2023-07-18T11:41:41.778Z,1469.00
2023-07-18T11:42:41.867Z,1342.00
2023-07-18T11:43:41.987Z,1258.00
2023-07-18T11:44:42.185Z,1271.00
2023-07-18T11:45:42.320Z,1332.00
2023-07-18T11:46:42.471Z,1753.00
2023-07-18T11:47:42.626Z,1880.00
2023-07-18T11:48:42.816Z,1778.00
2023-07-18T11:49:42.891Z,1695.00
2023-07-18T11:50:42.986Z,1686.00
2023-07-18T11:51:43.098Z,1346.00
2023-07-18T11:52:43.236Z,1027.00
2023-07-18T11:53:43.427Z,982.00
2023-07-18T11:54:43.516Z,1032.00
2023-07-18T11:55:43.669Z,811.00
2023-07-18T11:56:43.794Z,965.00
2023-07-18T11:57:43.895Z,1222.00
2023-07-18T11:58:44.052Z,1193.00
2023-07-18T11:59:44.145Z,1053.00
2023-07-18T12:00:44.320Z,1712.00
2023-07-18T12:01:44.530Z,1678.00
2023-07-18T12:02:44.568Z,1612.00
2023-07-18T12:03:44.760Z,1649.00
2023-07-18T12:04:44.824Z,1624.00
2023-07-18T12:05:44.963Z,1631.00
2023-07-18T12:06:45.212Z,1669.00
2023-07-18T12:07:45.233Z,1754.00
2023-07-18T12:08:45.362Z,1843.00
2023-07-18T12:09:45.547Z,2089.00
2023-07-18T12:10:50.360Z,2207.00
2023-07-18T12:11:46.825Z,2347.00
2023-07-18T12:12:45.930Z,2385.00
2023-07-18T12:13:46.073Z,2161.00
2023-07-18T12:14:46.205Z,1672.00
2023-07-18T12:15:46.309Z,1399.00
2023-07-18T12:16:46.554Z,1385.00
2023-07-18T12:17:46.674Z,1817.00
2023-07-18T12:18:46.732Z,2523.00
2023-07-18T12:19:46.905Z,1780.00
2023-07-18T12:20:47.068Z,1485.00
2023-07-18T12:21:47.117Z,2197.00
2023-07-18T12:22:47.252Z,1829.00
2023-07-18T12:23:47.370Z,1783.00
2023-07-18T12:24:47.459Z,2085.00
2023-07-18T12:25:47.582Z,2192.00
2023-07-18T12:26:47.686Z,1637.00
2023-07-18T12:27:47.801Z,2013.00
2023-07-18T12:28:47.915Z,2329.00
2023-07-18T12:29:48.036Z,2246.00
2023-07-18T12:30:48.195Z,1425.00
2023-07-18T12:31:48.356Z,1987.00
2023-07-18T12:32:48.484Z,2094.00
2023-07-18T12:33:48.498Z,2247.00
2023-07-18T12:34:48.635Z,2145.00
2023-07-18T12:35:48.755Z,2079.00
2023-07-18T12:36:48.890Z,2011.00
2023-07-18T12:37:48.962Z,1275.00
2023-07-18T12:38:49.143Z,1069.00
2023-07-18T12:39:49.259Z,1022.00
2023-07-18T12:40:49.358Z,1083.00
2023-07-18T12:41:49.527Z,1044.00
2023-07-18T12:42:49.634Z,1079.00
2023-07-18T12:43:49.827Z,1780.00
2023-07-18T12:44:49.961Z,1695.00
2023-07-18T12:45:50.081Z,2893.00
2023-07-18T12:46:50.235Z,2049.00
2023-07-18T12:47:50.349Z,2265.00
2023-07-18T12:48:51.046Z,715.00
2023-07-18T12:50:50.718Z,33361.00
2023-07-18T12:51:50.861Z,39667.00
2023-07-18T12:52:51.016Z,42345.00
2023-07-18T12:53:51.122Z,35987.00
2023-07-18T12:54:51.286Z,32397.00
2023-07-18T12:55:51.390Z,32801.00
2023-07-18T12:56:51.558Z,35011.00
2023-07-18T12:57:51.669Z,39112.00
2023-07-18T12:58:51.832Z,38818.00
2023-07-18T12:59:51.945Z,34369.00
2023-07-18T13:00:52.060Z,34978.00
2023-07-18T13:01:52.191Z,41117.00
2023-07-18T13:02:52.395Z,46242.00
2023-07-18T13:03:52.659Z,43727.00
2023-07-18T13:04:52.598Z,40122.00
2023-07-18T13:05:52.719Z,37039.00
2023-07-18T13:06:52.884Z,32537.00
2023-07-18T13:07:52.988Z,36762.00
2023-07-18T13:08:53.159Z,14066.00
2023-07-18T13:09:53.232Z,3124.00
2023-07-18T13:10:53.379Z,35343.00
2023-07-18T13:11:53.495Z,37420.00
2023-07-18T13:14:09.165Z,40395.00
2023-07-18T13:15:09.260Z,23405.00
2023-07-18T13:16:09.458Z,4746.00
2023-07-18T13:17:09.527Z,34153.00
2023-07-18T13:18:09.844Z,3898.00
2023-07-18T13:19:09.848Z,24204.00
2023-07-18T13:20:09.937Z,41007.00
2023-07-18T13:21:10.063Z,41152.00
2023-07-18T13:22:12.795Z,38382.00
2023-07-18T13:23:10.318Z,38352.00
2023-07-18T13:24:10.397Z,39955.00
2023-07-18T13:25:10.509Z,38643.00
2023-07-18T13:26:10.654Z,39246.00
2023-07-18T13:27:10.808Z,37474.00
2023-07-18T13:28:10.977Z,37963.00
2023-07-18T13:29:11.120Z,34504.00
2023-07-18T13:30:11.278Z,3263.00
2023-07-18T13:31:11.437Z,2472.00
2023-07-18T13:32:11.623Z,3480.00
2023-07-18T13:33:11.698Z,1606.00
2023-07-18T13:34:14.194Z,1556.00
2023-07-18T13:35:11.926Z,1606.00
2023-07-18T13:36:12.054Z,1814.00
2023-07-18T13:37:12.149Z,22042.00
2023-07-18T13:38:12.269Z,32716.00
2023-07-18T13:39:12.391Z,38143.00
2023-07-18T13:40:12.516Z,37812.00
2023-07-18T13:41:12.622Z,24567.00
2023-07-18T13:42:12.737Z,12351.00
2023-07-18T13:43:12.843Z,9907.00
2023-07-18T13:44:13.051Z,25180.00
2023-07-18T13:45:13.126Z,38116.00
2023-07-18T13:46:13.643Z,34506.00
2023-07-18T13:47:15.306Z,33320.00
2023-07-18T13:48:13.551Z,37702.00
2023-07-18T13:49:13.609Z,35216.00
2023-07-18T13:51:14.072Z,34101.00
2023-07-18T13:52:14.030Z,34611.00
2023-07-18T13:53:14.177Z,34473.00
2023-07-18T13:54:14.314Z,32692.00
2023-07-18T13:55:14.418Z,29782.00
2023-07-18T13:56:14.530Z,2813.00
2023-07-18T13:57:14.627Z,5893.00
2023-07-18T13:58:14.749Z,2056.00
2023-07-18T13:59:14.846Z,23236.00
2023-07-18T14:00:14.952Z,36857.00
2023-07-18T14:01:15.157Z,34905.00
2023-07-18T14:02:15.226Z,26379.00
2023-07-18T14:03:32.079Z,3249.00
2023-07-18T14:04:16.631Z,2706.00
2023-07-18T14:05:15.699Z,2853.00
2023-07-18T14:06:15.786Z,22718.00
2023-07-18T14:07:15.985Z,4089.00
2023-07-18T14:08:16.037Z,31611.00
2023-07-18T14:09:16.241Z,31303.00
2023-07-18T14:10:16.350Z,30064.00
2023-07-18T14:11:16.432Z,28727.00
2023-07-18T14:12:16.597Z,29407.00
2023-07-18T14:13:16.691Z,6773.00
2023-07-18T14:14:16.801Z,24503.00
2023-07-18T14:15:17.005Z,2060.00
2023-07-18T14:16:17.183Z,1572.00
2023-07-18T14:17:17.337Z,1674.00
2023-07-18T14:18:17.415Z,1506.00
2023-07-18T14:19:17.518Z,24717.00
2023-07-18T14:20:17.623Z,26032.00
2023-07-18T14:21:17.768Z,2566.00
2023-07-18T14:22:17.892Z,1169.00
2023-07-18T14:23:18.422Z,872.00
2023-07-18T14:24:18.100Z,984.00
2023-07-18T14:25:18.233Z,2165.00
2023-07-18T14:26:18.613Z,1441.00
2023-07-18T14:27:18.480Z,1377.00
2023-07-18T14:28:18.638Z,6692.00
2023-07-18T14:29:18.747Z,23659.00
2023-07-18T14:30:18.857Z,24266.00
2023-07-18T14:31:19.097Z,24685.00
2023-07-18T14:32:19.102Z,22760.00
2023-07-18T14:33:19.410Z,22033.00
2023-07-18T14:34:19.329Z,24948.00
2023-07-18T14:35:19.441Z,23027.00
2023-07-18T14:36:19.791Z,21200.00
2023-07-18T14:37:19.733Z,11322.00
2023-07-18T14:38:19.886Z,4537.00
2023-07-18T14:39:20.061Z,3710.00
2023-07-18T14:40:20.109Z,3385.00
2023-07-18T14:41:20.303Z,3150.00
2023-07-18T14:42:20.401Z,3019.00
2023-07-18T14:43:20.542Z,2829.00
2023-07-18T14:44:20.686Z,2704.00
2023-07-18T14:45:20.867Z,2645.00
2023-07-18T14:46:21.298Z,2516.00
2023-07-18T14:47:21.057Z,2354.00
2023-07-18T14:48:21.213Z,2179.00
2023-07-18T14:49:21.310Z,1986.00
2023-07-18T14:50:21.502Z,1823.00
2023-07-18T14:51:21.602Z,1687.00
2023-07-18T14:52:21.765Z,1545.00
2023-07-18T14:53:21.871Z,1419.00
2023-07-18T14:54:21.976Z,1138.00
2023-07-18T14:55:22.194Z,1220.00
2023-07-18T14:56:22.402Z,851.00
2023-07-18T14:57:22.387Z,1137.00
2023-07-18T14:58:22.524Z,741.00
2023-07-18T14:59:22.635Z,721.00
2023-07-18T15:00:22.749Z,766.00
2023-07-18T15:01:22.901Z,881.00
2023-07-18T15:02:23.020Z,956.00
2023-07-18T15:03:23.159Z,1080.00
2023-07-18T15:04:23.234Z,1181.00
2023-07-18T15:05:23.338Z,1324.00
2023-07-18T15:06:23.487Z,1407.00
2023-07-18T15:07:23.588Z,1513.00
2023-07-18T15:08:23.724Z,1412.00
2023-07-18T15:09:23.832Z,1345.00
2023-07-18T15:10:24.017Z,1320.00
2023-07-18T15:11:24.110Z,1020.00
2023-07-18T15:12:24.214Z,1010.00
2023-07-18T15:13:24.318Z,1078.00
2023-07-18T15:14:24.459Z,1157.00
2023-07-18T15:15:24.608Z,1204.00
2023-07-18T15:16:24.821Z,1362.00
2023-07-18T15:17:24.924Z,1401.00
2023-07-18T15:18:25.029Z,1370.00
2023-07-18T15:19:25.185Z,1223.00
2023-07-18T15:20:25.341Z,1039.00
2023-07-18T15:21:25.442Z,962.00
2023-07-18T15:22:25.607Z,735.00
2023-07-18T15:23:25.806Z,928.00
2023-07-18T15:24:25.902Z,933.00
2023-07-18T15:25:26.006Z,773.00
2023-07-18T15:26:26.169Z,701.00
2023-07-18T15:27:26.274Z,688.00
2023-07-18T15:28:26.410Z,667.00
2023-07-18T15:29:26.486Z,717.00
2023-07-18T15:30:26.619Z,867.00
2023-07-18T15:31:26.762Z,973.00
2023-07-18T15:32:26.856Z,1118.00
2023-07-18T15:33:27.837Z,1111.00
2023-07-18T15:34:27.073Z,1056.00
2023-07-18T15:35:27.202Z,1050.00
2023-07-18T15:36:27.312Z,1056.00
2023-07-18T15:37:27.449Z,1244.00
2023-07-18T15:38:27.601Z,1267.00
2023-07-18T15:39:27.722Z,1237.00
2023-07-18T15:40:27.816Z,1169.00
2023-07-18T15:41:28.012Z,1160.00
2023-07-18T15:42:28.106Z,1179.00
2023-07-18T15:43:28.223Z,1191.00
2023-07-18T15:44:28.396Z,1165.00
2023-07-18T15:45:28.519Z,1159.00
2023-07-18T15:46:28.729Z,1101.00
2023-07-18T15:47:28.772Z,1091.00
2023-07-18T15:48:28.854Z,1066.00
2023-07-18T15:49:28.988Z,989.00
2023-07-18T15:50:29.103Z,921.00
2023-07-18T15:51:29.187Z,829.00
2023-07-18T15:52:29.328Z,751.00
2023-07-18T15:53:29.492Z,710.00
2023-07-18T15:54:29.630Z,694.00
2023-07-18T15:55:29.730Z,682.00
2023-07-18T15:56:29.810Z,676.00
2023-07-18T15:57:29.942Z,664.00
2023-07-18T15:58:30.146Z,656.00
2023-07-18T15:59:30.234Z,645.00
2023-07-18T16:00:30.406Z,633.00
2023-07-18T16:01:30.727Z,625.00
2023-07-18T16:02:30.701Z,609.00
2023-07-18T16:03:30.873Z,596.00
2023-07-18T16:04:30.967Z,584.00
2023-07-18T16:05:31.040Z,577.00
2023-07-18T16:06:31.186Z,569.00
2023-07-18T16:07:31.283Z,559.00
2023-07-18T16:08:31.394Z,553.00
2023-07-18T16:09:31.589Z,547.00
2023-07-18T16:10:31.738Z,538.00
2023-07-18T16:11:31.837Z,531.00
2023-07-18T16:12:31.925Z,521.00
2023-07-18T16:13:32.032Z,515.00
2023-07-18T16:14:34.163Z,511.00
2023-07-18T16:15:32.293Z,514.00
2023-07-18T16:16:32.437Z,525.00
2023-07-18T16:28:47.667Z,416.00
2023-07-18T16:29:47.763Z,420.00
2023-07-18T16:30:47.873Z,432.00
2023-07-18T16:31:48.062Z,424.00
2023-07-18T16:32:48.250Z,403.00
2023-07-18T16:33:48.348Z,473.00
2023-07-18T16:34:48.456Z,460.00
2023-07-18T16:35:48.599Z,429.00
2023-07-18T16:36:48.757Z,413.00
2023-07-18T16:37:48.849Z,397.00
2023-07-18T16:38:48.996Z,390.00
2023-07-18T16:39:49.132Z,384.00
2023-07-18T16:40:49.236Z,376.00
2023-07-18T16:41:49.362Z,371.00
2023-07-18T16:42:49.465Z,367.00
2023-07-18T16:43:49.638Z,364.00
2023-07-18T16:44:50.685Z,352.00
2023-07-18T16:45:49.860Z,343.00
2023-07-18T16:46:50.009Z,358.00
2023-07-18T16:47:50.129Z,359.00
2023-07-18T16:48:50.234Z,337.00
2023-07-18T16:49:50.348Z,317.00
2023-07-18T16:50:50.499Z,310.00
2023-07-18T16:51:50.645Z,359.00
2023-07-18T16:52:50.752Z,395.00
2023-07-18T16:53:50.892Z,411.00
2023-07-18T16:54:51.967Z,405.00
2023-07-18T16:55:51.149Z,360.00
2023-07-18T16:56:51.254Z,350.00
2023-07-18T16:57:51.367Z,354.00
2023-07-18T16:58:51.518Z,339.00